createdAt,value
2018-03-25T00:02:14.969Z,12.33
2018-03-25T00:04:42.533Z,12.93
2018-03-25T00:07:10.949Z,13.17
2018-03-25T00:09:38.557Z,12.47
2018-03-25T00:12:06.185Z,13.23
2018-03-25T00:14:33.769Z,13.73
2018-03-25T00:17:01.312Z,13.53
2018-03-25T00:19:29.182Z,15.00
2018-03-25T00:21:56.772Z,12.40
2018-03-25T00:24:24.332Z,12.20
2018-03-25T00:26:51.888Z,12.50
2018-03-25T00:29:19.586Z,12.53
2018-03-25T00:31:47.488Z,13.40
2018-03-25T00:34:15.574Z,13.50
2018-03-25T00:36:43.100Z,13.17
2018-03-25T00:39:10.662Z,13.30
2018-03-25T00:41:38.251Z,11.60
2018-03-25T00:44:06.292Z,11.97
2018-03-25T00:46:33.857Z,13.47
2018-03-25T00:49:01.408Z,13.23
2018-03-25T00:51:28.969Z,12.13
2018-03-25T00:53:57.357Z,13.53
2018-03-25T00:56:24.870Z,11.30
2018-03-25T00:58:52.783Z,12.93
2018-03-25T01:01:20.309Z,11.30
2018-03-25T01:03:48.252Z,11.40
2018-03-25T01:06:15.734Z,13.07
2018-03-25T01:08:43.723Z,13.03
2018-03-25T01:11:11.673Z,12.53
2018-03-25T01:13:39.240Z,12.47
2018-03-25T01:16:11.238Z,12.43
2018-03-25T01:18:38.757Z,11.93
2018-03-25T01:21:06.257Z,12.27
2018-03-25T01:23:34.018Z,12.00
2018-03-25T01:26:01.933Z,12.37
2018-03-25T01:28:29.435Z,11.40
2018-03-25T01:30:57.352Z,11.27
2018-03-25T01:33:24.829Z,12.40
2018-03-25T01:35:52.359Z,11.97
2018-03-25T01:38:19.892Z,10.67
2018-03-25T01:40:47.401Z,11.43
2018-03-25T01:43:14.930Z,11.03
2018-03-25T01:45:42.826Z,12.60
2018-03-25T01:48:10.497Z,13.03
2018-03-25T01:50:38.023Z,12.67
2018-03-25T01:53:05.892Z,11.50
2018-03-25T01:55:33.810Z,12.47
2018-03-25T01:58:01.351Z,13.33
2018-03-25T02:00:29.241Z,12.03
2018-03-25T02:02:56.765Z,12.17
2018-03-25T02:05:24.652Z,10.90
2018-03-25T02:07:52.636Z,12.63
2018-03-25T02:10:20.168Z,11.63
2018-03-25T02:12:48.083Z,10.57
2018-03-25T02:15:15.628Z,12.33
2018-03-25T02:17:43.197Z,10.97
2018-03-25T02:20:10.722Z,11.93
2018-03-25T02:22:38.351Z,11.77
2018-03-25T02:25:05.884Z,13.30
2018-03-25T02:27:33.801Z,11.57
2018-03-25T02:30:01.368Z,11.37
2018-03-25T02:32:28.934Z,11.67
2018-03-25T02:34:56.545Z,11.83
2018-03-25T02:37:24.385Z,13.80
2018-03-25T02:39:51.895Z,11.87
2018-03-25T02:42:19.394Z,10.73
2018-03-25T02:44:46.887Z,12.73
2018-03-25T02:47:14.807Z,12.30
2018-03-25T02:49:42.347Z,14.07
2018-03-25T02:52:10.227Z,12.27
2018-03-25T02:54:37.737Z,12.07
2018-03-25T02:57:05.244Z,12.47
2018-03-25T02:59:33.070Z,11.73
2018-03-25T03:02:00.677Z,12.13
2018-03-25T03:04:28.634Z,12.10
2018-03-25T03:06:56.559Z,12.60
2018-03-25T03:09:24.055Z,13.37
2018-03-25T03:11:52.662Z,13.93
2018-03-25T03:14:20.690Z,12.13
2018-03-25T03:16:48.229Z,12.97
2018-03-25T03:19:15.846Z,12.23
2018-03-25T03:21:43.591Z,12.43
2018-03-25T03:24:11.087Z,11.40
2018-03-25T03:26:38.679Z,10.87
2018-03-25T03:29:06.175Z,12.97
2018-03-25T03:31:33.691Z,11.33
2018-03-25T03:34:01.594Z,12.47
2018-03-25T03:36:29.104Z,12.80
2018-03-25T03:38:57.224Z,14.80
2018-03-25T03:41:24.754Z,13.23
2018-03-25T03:43:52.732Z,14.00
2018-03-25T03:46:20.653Z,12.83
2018-03-25T03:48:48.982Z,13.33
2018-03-25T03:51:16.491Z,11.97
2018-03-25T03:53:43.993Z,11.50
2018-03-25T03:56:11.468Z,11.93
2018-03-25T03:58:39.345Z,10.67
2018-03-25T04:01:07.221Z,12.90
2018-03-25T04:03:35.141Z,12.57
2018-03-25T04:06:02.719Z,11.00
2018-03-25T04:08:30.260Z,12.63
2018-03-25T04:10:57.785Z,11.80
2018-03-25T04:13:25.679Z,12.70
2018-03-25T04:15:53.202Z,10.90
2018-03-25T04:18:21.134Z,11.77
2018-03-25T04:20:48.678Z,12.07
2018-03-25T04:23:16.181Z,12.70
2018-03-25T04:25:43.669Z,11.47
2018-03-25T04:28:11.603Z,12.47
2018-03-25T04:30:39.109Z,11.47
2018-03-25T04:33:07.032Z,13.07
2018-03-25T04:35:34.588Z,13.37
2018-03-25T04:38:02.092Z,11.80
2018-03-25T04:40:30.043Z,11.97
2018-03-25T04:42:57.681Z,13.67
2018-03-25T04:45:25.210Z,11.07
2018-03-25T04:47:53.171Z,11.33
2018-03-25T04:50:20.705Z,12.00
2018-03-25T04:52:48.607Z,13.80
2018-03-25T04:55:16.300Z,12.23
2018-03-25T04:57:43.804Z,12.80
2018-03-25T05:00:11.345Z,12.40
2018-03-25T05:02:38.934Z,12.97
2018-03-25T05:05:06.428Z,11.83
2018-03-25T05:07:33.937Z,12.07
2018-03-25T05:10:01.451Z,12.77
2018-03-25T05:12:28.943Z,11.90
2018-03-25T05:14:56.524Z,13.20
2018-03-25T05:17:24.152Z,12.77
2018-03-25T05:19:52.158Z,11.37
2018-03-25T05:22:19.633Z,12.00
2018-03-25T05:24:47.528Z,11.83
2018-03-25T05:27:15.167Z,12.10
2018-03-25T05:29:42.668Z,12.30
2018-03-25T05:32:10.227Z,11.50
2018-03-25T05:34:37.786Z,14.00
2018-03-25T05:37:05.312Z,10.90
2018-03-25T05:39:32.809Z,13.07
2018-03-25T05:42:00.313Z,13.33
2018-03-25T05:44:28.253Z,12.97
2018-03-25T05:46:55.885Z,10.20
2018-03-25T05:49:23.403Z,12.50
2018-03-25T05:51:51.483Z,12.20
2018-03-25T05:54:19.395Z,12.50
2018-03-25T05:56:46.952Z,13.40
2018-03-25T05:59:14.600Z,11.90
2018-03-25T06:01:42.195Z,11.57
2018-03-25T06:04:09.754Z,12.00
2018-03-25T06:06:37.579Z,12.57
2018-03-25T06:09:05.486Z,12.40
2018-03-25T06:11:33.020Z,12.63
2018-03-25T06:14:01.118Z,12.90
2018-03-25T06:16:28.710Z,13.53
2018-03-25T06:18:56.213Z,13.00
2018-03-25T06:21:24.243Z,13.67
2018-03-25T06:23:51.792Z,14.20
2018-03-25T06:26:19.312Z,14.90
2018-03-25T06:28:47.281Z,12.30
2018-03-25T06:31:14.996Z,14.20
2018-03-25T06:33:42.526Z,13.23
2018-03-25T06:36:10.081Z,15.57
2018-03-25T06:38:38.012Z,14.03
2018-03-25T06:41:05.543Z,14.40
2018-03-25T06:43:33.490Z,14.60
2018-03-25T06:46:01.438Z,14.47
2018-03-25T06:48:29.860Z,13.57
2018-03-25T06:50:57.834Z,13.63
2018-03-25T06:53:25.823Z,13.10
2018-03-25T06:55:53.348Z,14.30
2018-03-25T06:58:20.925Z,13.23
2018-03-25T07:00:48.504Z,15.03
2018-03-25T07:03:16.427Z,13.13
2018-03-25T07:05:44.019Z,16.13
2018-03-25T07:08:11.937Z,14.23
2018-03-25T07:10:39.446Z,15.13
2018-03-25T07:13:06.942Z,14.80
2018-03-25T07:15:34.496Z,16.70
2018-03-25T07:18:02.443Z,15.93
2018-03-25T07:20:29.942Z,16.10
2018-03-25T07:22:57.853Z,16.47
2018-03-25T07:25:25.373Z,14.53
2018-03-25T07:27:53.421Z,14.27
2018-03-25T07:30:21.064Z,15.13
2018-03-25T07:32:48.559Z,14.97
2018-03-25T07:35:16.512Z,16.40
2018-03-25T07:37:44.036Z,15.40
2018-03-25T07:40:11.518Z,15.57
2018-03-25T07:42:40.003Z,15.30
2018-03-25T07:45:07.564Z,15.40
2018-03-25T07:47:35.064Z,17.13
2018-03-25T07:50:02.765Z,16.00
2018-03-25T07:52:30.318Z,14.50
2018-03-25T07:54:58.314Z,18.87
2018-03-25T07:57:26.788Z,17.07
2018-03-25T07:59:54.309Z,16.13
2018-03-25T08:02:21.914Z,18.00
2018-03-25T08:04:49.519Z,16.67
2018-03-25T08:07:17.092Z,17.20
2018-03-25T08:09:44.626Z,17.10
2018-03-25T08:12:12.126Z,16.67
2018-03-25T08:14:39.690Z,18.37
2018-03-25T08:17:07.290Z,17.30
2018-03-25T08:19:35.259Z,16.53
2018-03-25T08:22:03.327Z,17.03
2018-03-25T08:24:31.327Z,17.83
2018-03-25T08:26:58.847Z,18.70
2018-03-25T08:29:26.421Z,22.87
2018-03-25T08:31:54.870Z,19.97
2018-03-25T08:34:22.419Z,18.57
2018-03-25T08:36:49.967Z,16.90
2018-03-25T08:39:17.538Z,19.50
2018-03-25T08:41:45.040Z,19.23
2018-03-25T08:44:12.587Z,18.30
2018-03-25T08:46:40.138Z,18.43
2018-03-25T08:49:07.657Z,18.00
2018-03-25T08:51:35.640Z,17.90
2018-03-25T08:54:03.532Z,16.40
2018-03-25T08:56:31.057Z,19.37
2018-03-25T08:58:58.568Z,17.50
2018-03-25T09:01:26.062Z,19.27
2018-03-25T09:03:53.561Z,19.40
2018-03-25T09:06:21.554Z,18.20
2018-03-25T09:08:49.218Z,17.47
2018-03-25T09:11:16.755Z,19.30
2018-03-25T09:13:44.729Z,19.63
2018-03-25T09:16:12.295Z,20.10
2018-03-25T09:18:40.282Z,20.03
2018-03-25T09:21:08.177Z,18.33
2018-03-25T09:23:35.750Z,19.73
2018-03-25T09:26:03.257Z,18.67
2018-03-25T09:28:30.799Z,20.23
2018-03-25T09:30:59.299Z,18.60
2018-03-25T09:33:26.876Z,19.87
2018-03-25T09:35:54.471Z,21.10
2018-03-25T09:38:23.537Z,20.23
2018-03-25T09:40:51.063Z,21.27
2018-03-25T09:43:23.309Z,19.47
2018-03-25T09:45:50.884Z,20.00
2018-03-25T09:48:18.761Z,20.63
2018-03-25T09:50:46.310Z,18.97
2018-03-25T09:53:13.810Z,21.03
2018-03-25T09:55:41.310Z,20.50
2018-03-25T09:58:09.221Z,18.90
2018-03-25T10:00:36.770Z,21.47
2018-03-25T10:03:24.164Z,20.73
2018-03-25T10:05:52.274Z,20.50
2018-03-25T10:08:19.803Z,21.20
2018-03-25T10:10:47.392Z,21.23
2018-03-25T10:13:14.894Z,20.50
2018-03-25T10:15:42.482Z,20.00
2018-03-25T10:18:10.239Z,19.10
2018-03-25T10:20:37.928Z,20.60
2018-03-25T10:23:06.671Z,20.23
2018-03-25T10:25:36.123Z,20.77
2018-03-25T10:28:04.880Z,19.40
2018-03-25T10:30:34.967Z,20.13
2018-03-25T10:33:02.550Z,18.70
2018-03-25T10:35:30.992Z,21.33
2018-03-25T10:37:59.635Z,18.27
2018-03-25T10:40:27.280Z,20.30
2018-03-25T10:42:54.780Z,19.97
2018-03-25T10:45:22.339Z,19.30
2018-03-25T10:47:49.866Z,17.70
2018-03-25T10:50:17.440Z,18.70
2018-03-25T10:52:44.989Z,19.60
2018-03-25T10:55:12.569Z,17.97
2018-03-25T10:57:40.193Z,19.27
2018-03-25T11:00:08.185Z,20.50
2018-03-25T11:02:35.776Z,21.10
2018-03-25T11:05:03.304Z,19.50
2018-03-25T11:07:30.997Z,19.27
2018-03-25T11:09:58.636Z,18.93
2018-03-25T11:12:27.127Z,19.70
2018-03-25T11:14:54.742Z,19.87
2018-03-25T11:17:22.313Z,19.73
2018-03-25T11:19:49.827Z,18.97
2018-03-25T11:22:17.390Z,18.57
2018-03-25T11:24:46.093Z,19.20
2018-03-25T11:27:13.634Z,18.33
2018-03-25T11:29:41.585Z,18.50
2018-03-25T11:32:09.443Z,20.50
2018-03-25T11:34:37.792Z,19.80
2018-03-25T11:37:05.290Z,18.80
2018-03-25T11:39:32.860Z,18.73
2018-03-25T11:42:00.395Z,18.00
2018-03-25T11:44:29.594Z,18.70
2018-03-25T11:46:57.200Z,16.23
2018-03-25T11:49:24.739Z,18.37
2018-03-25T11:51:52.300Z,20.00
2018-03-25T11:54:19.802Z,17.57
2018-03-25T11:56:47.740Z,18.50
2018-03-25T11:59:15.283Z,16.33
2018-03-25T12:01:42.843Z,17.50
2018-03-25T12:04:10.479Z,17.20
2018-03-25T12:06:38.036Z,18.70
2018-03-25T12:09:05.941Z,16.80
2018-03-25T12:11:33.453Z,16.50
2018-03-25T12:14:01.387Z,18.60
2018-03-25T12:16:28.929Z,17.03
2018-03-25T12:18:56.462Z,15.67
2018-03-25T12:21:24.801Z,16.50
2018-03-25T12:23:52.467Z,17.60
2018-03-25T12:26:20.042Z,17.50
2018-03-25T12:28:47.565Z,17.53
2018-03-25T12:31:15.103Z,16.40
2018-03-25T12:33:43.044Z,17.00
2018-03-25T12:36:10.564Z,16.17
2018-03-25T12:38:38.112Z,16.17
2018-03-25T12:41:06.112Z,17.07
2018-03-25T12:43:33.662Z,16.50
2018-03-25T12:46:01.773Z,15.37
2018-03-25T12:48:29.413Z,16.87
2018-03-25T12:50:57.632Z,17.10
2018-03-25T12:53:25.168Z,16.00
2018-03-25T12:55:52.741Z,17.40
2018-03-25T12:58:20.338Z,17.13
2018-03-25T13:00:48.157Z,15.80
2018-03-25T13:03:16.542Z,15.90
2018-03-25T13:05:44.112Z,15.83
2018-03-25T13:08:11.657Z,15.83
2018-03-25T13:10:39.247Z,16.10
2018-03-25T13:13:06.816Z,17.70
2018-03-25T13:15:34.341Z,17.00
2018-03-25T13:18:02.400Z,16.03
2018-03-25T13:20:29.969Z,17.20
2018-03-25T13:22:57.704Z,16.57
2018-03-25T13:25:25.220Z,15.77
2018-03-25T13:27:52.796Z,15.80
2018-03-25T13:30:21.215Z,17.00
2018-03-25T13:32:48.809Z,16.47
2018-03-25T13:35:16.368Z,16.33
2018-03-25T13:37:44.611Z,18.00
2018-03-25T13:40:12.426Z,16.60
2018-03-25T13:42:40.408Z,17.00
2018-03-25T13:45:08.322Z,16.50
2018-03-25T13:47:35.936Z,16.90
2018-03-25T13:50:03.508Z,17.13
2018-03-25T13:52:31.149Z,16.63
2018-03-25T13:54:58.667Z,17.40
2018-03-25T13:57:26.325Z,16.50
2018-03-25T13:59:53.811Z,17.23
2018-03-25T14:02:21.327Z,17.33
2018-03-25T14:04:49.314Z,17.10
2018-03-25T14:07:17.291Z,16.07
2018-03-25T14:09:44.826Z,16.43
2018-03-25T14:12:12.343Z,17.53
2018-03-25T14:14:39.913Z,16.07
2018-03-25T14:17:07.487Z,16.23
2018-03-25T14:19:34.999Z,16.60
2018-03-25T14:22:03.051Z,18.10
2018-03-25T14:24:30.562Z,16.90
2018-03-25T14:26:58.330Z,16.20
2018-03-25T14:29:25.861Z,17.90
2018-03-25T14:31:54.064Z,17.63
2018-03-25T14:34:21.638Z,17.20
2018-03-25T14:36:49.248Z,18.80
2018-03-25T14:39:17.289Z,16.57
2018-03-25T14:41:45.189Z,16.50
2018-03-25T14:44:12.755Z,17.60
2018-03-25T14:46:40.487Z,17.47
2018-03-25T14:49:08.417Z,17.10
2018-03-25T14:51:36.115Z,16.27
2018-03-25T14:54:09.326Z,16.90
2018-03-25T14:56:36.909Z,16.60
2018-03-25T14:59:05.170Z,15.67
2018-03-25T15:01:32.908Z,17.57
2018-03-25T15:04:00.938Z,15.23
2018-03-25T15:06:28.522Z,16.07
2018-03-25T15:08:56.096Z,16.40
2018-03-25T15:11:23.644Z,17.37
2018-03-25T15:13:51.282Z,14.50
2018-03-25T15:16:19.399Z,16.40
2018-03-25T15:18:47.095Z,16.70
2018-03-25T15:21:15.045Z,16.73
2018-03-25T15:23:42.641Z,15.77
2018-03-25T15:26:11.844Z,15.87
2018-03-25T15:28:39.439Z,16.53
2018-03-25T15:31:07.000Z,16.70
2018-03-25T15:33:34.541Z,17.93
2018-03-25T15:36:02.042Z,16.50
2018-03-25T15:38:29.548Z,15.10
2018-03-25T15:40:57.477Z,16.70
2018-03-25T15:43:24.982Z,15.27
2018-03-25T15:45:52.487Z,16.10
2018-03-25T15:48:21.940Z,17.10
2018-03-25T15:50:49.843Z,17.13
2018-03-25T15:53:17.369Z,14.33
2018-03-25T15:55:44.884Z,17.87
2018-03-25T15:58:12.438Z,17.10
2018-03-25T16:00:40.094Z,16.23
2018-03-25T16:03:07.631Z,19.23
2018-03-25T16:05:35.581Z,17.07
2018-03-25T16:08:03.380Z,16.67
2018-03-25T16:10:31.315Z,15.80
2018-03-25T16:12:58.866Z,17.90
2018-03-25T16:15:26.552Z,16.10
2018-03-25T16:17:54.074Z,18.60
2018-03-25T16:20:21.583Z,16.30
2018-03-25T16:22:49.125Z,17.80
2018-03-25T16:25:16.609Z,16.80
2018-03-25T16:27:44.237Z,18.83
2018-03-25T16:30:13.918Z,17.13
2018-03-25T16:32:43.036Z,17.77
2018-03-25T16:35:10.741Z,17.40
2018-03-25T16:37:38.291Z,15.83
2018-03-25T16:40:05.806Z,17.70
2018-03-25T16:42:33.774Z,16.30
2018-03-25T16:45:01.354Z,16.03
2018-03-25T16:47:29.261Z,17.37
2018-03-25T16:49:56.810Z,17.13
2018-03-25T16:52:24.340Z,18.00
2018-03-25T16:54:52.271Z,17.50
2018-03-25T16:57:19.880Z,14.70
2018-03-25T16:59:47.813Z,15.47
2018-03-25T17:02:16.935Z,17.43
2018-03-25T17:04:44.952Z,14.97
2018-03-25T17:07:12.881Z,16.97
2018-03-25T17:09:40.479Z,16.90
2018-03-25T17:12:08.071Z,18.20
2018-03-25T17:14:35.609Z,18.20
2018-03-25T17:17:04.358Z,18.27
2018-03-25T17:19:31.973Z,19.77
2018-03-25T17:21:59.820Z,17.70
2018-03-25T17:24:27.465Z,17.03
2018-03-25T17:26:55.108Z,16.53
2018-03-25T17:29:22.665Z,17.27
2018-03-25T17:31:50.213Z,17.63
2018-03-25T17:34:17.827Z,16.73
2018-03-25T17:36:45.461Z,17.07
2018-03-25T17:39:13.004Z,17.40
2018-03-25T17:41:40.657Z,16.37
2018-03-25T17:44:08.699Z,18.60
2018-03-25T17:46:36.225Z,18.80
2018-03-25T17:49:03.769Z,20.37
2018-03-25T17:51:31.276Z,17.93
2018-03-25T17:53:58.892Z,19.70
2018-03-25T17:56:26.556Z,19.60
2018-03-25T17:58:54.926Z,18.73
2018-03-25T18:01:22.448Z,18.97
2018-03-25T18:03:50.012Z,19.50
2018-03-25T18:06:17.584Z,18.10
2018-03-25T18:08:45.201Z,18.17
2018-03-25T18:11:13.146Z,16.97
2018-03-25T18:13:40.976Z,19.00
2018-03-25T18:16:08.632Z,17.80
2018-03-25T18:18:36.211Z,17.07
2018-03-25T18:21:04.240Z,16.77
2018-03-25T18:23:32.494Z,18.93
2018-03-25T18:26:00.183Z,18.37
2018-03-25T18:28:27.757Z,17.13
2018-03-25T18:30:57.663Z,18.10
2018-03-25T18:33:25.289Z,18.03
2018-03-25T18:35:53.733Z,20.60
2018-03-25T18:38:21.609Z,18.37
2018-03-25T18:40:50.384Z,18.63
2018-03-25T18:43:18.385Z,17.83
2018-03-25T18:45:46.029Z,18.07
2018-03-25T18:48:14.683Z,16.53
2018-03-25T18:50:42.251Z,16.27
2018-03-25T18:53:10.770Z,15.00
2018-03-25T18:55:38.728Z,14.00
2018-03-25T18:58:06.753Z,14.60
2018-03-25T19:00:34.416Z,14.10
2018-03-25T19:03:01.985Z,14.97
2018-03-25T19:05:29.793Z,14.30
2018-03-25T19:07:57.855Z,14.63
2018-03-25T19:10:25.582Z,13.27
2018-03-25T19:12:53.244Z,14.60
2018-03-25T19:15:20.814Z,14.53
2018-03-25T19:17:48.499Z,19.30
2018-03-25T19:20:16.089Z,17.43
2018-03-25T19:22:43.808Z,15.20
2018-03-25T19:25:11.409Z,15.90
2018-03-25T19:27:39.104Z,16.90
2018-03-25T19:30:06.803Z,19.13
2018-03-25T19:32:34.483Z,18.43
2018-03-25T19:35:02.266Z,17.50
2018-03-25T19:37:31.011Z,18.33
2018-03-25T19:39:58.906Z,18.83
2018-03-25T19:42:31.495Z,16.83
2018-03-25T19:45:00.777Z,17.97
2018-03-25T19:47:28.487Z,17.40
2018-03-25T19:49:56.117Z,17.40
2018-03-25T19:52:25.383Z,15.77
2018-03-25T19:54:53.101Z,14.90
2018-03-25T19:57:20.761Z,14.20
2018-03-25T19:59:48.978Z,13.87
2018-03-25T20:02:18.008Z,15.70
2018-03-25T20:04:46.703Z,15.63
2018-03-25T20:07:15.570Z,16.40
2018-03-25T20:09:44.903Z,15.43
2018-03-25T20:12:13.722Z,15.50
2018-03-25T20:14:42.241Z,16.07
2018-03-25T20:17:10.958Z,15.23
2018-03-25T20:19:38.978Z,14.50
2018-03-25T20:22:06.606Z,17.03
2018-03-25T20:24:35.076Z,16.40
2018-03-25T20:27:05.035Z,16.00
2018-03-25T20:29:32.611Z,15.77
2018-03-25T20:32:00.993Z,13.87
2018-03-25T20:34:28.881Z,14.67
2018-03-25T20:36:56.612Z,12.93
2018-03-25T20:39:24.190Z,15.10
2018-03-25T20:41:51.869Z,15.20
2018-03-25T20:44:19.437Z,14.87
2018-03-25T20:46:47.091Z,13.40
2018-03-25T20:49:15.298Z,15.83
2018-03-25T20:51:42.955Z,15.80
2018-03-25T20:54:12.084Z,14.90
2018-03-25T20:56:40.972Z,15.80
2018-03-25T20:59:08.771Z,14.43
2018-03-25T21:01:36.990Z,14.73
2018-03-25T21:04:04.812Z,14.30
2018-03-25T21:06:32.899Z,14.83
2018-03-25T21:09:00.890Z,16.07
2018-03-25T21:11:28.605Z,14.70
2018-03-25T21:13:56.350Z,14.70
2018-03-25T21:16:24.004Z,15.47
2018-03-25T21:18:51.861Z,14.90
2018-03-25T21:21:19.557Z,15.30
2018-03-25T21:23:48.335Z,15.70
2018-03-25T21:26:15.988Z,17.50
2018-03-25T21:28:43.520Z,16.37
2018-03-25T21:31:11.014Z,17.40
2018-03-25T21:33:38.553Z,16.20
2018-03-25T21:36:06.533Z,14.30
2018-03-25T21:38:34.438Z,16.33
2018-03-25T21:41:01.959Z,15.20
2018-03-25T21:43:29.890Z,16.17
2018-03-25T21:45:57.414Z,17.10
2018-03-25T21:48:24.946Z,14.97
2018-03-25T21:50:52.463Z,15.33
2018-03-25T21:53:19.952Z,15.90
2018-03-25T21:55:47.431Z,15.90
2018-03-25T21:58:15.360Z,15.13
2018-03-25T22:00:42.851Z,15.70
2018-03-25T22:03:10.427Z,16.93
2018-03-25T22:05:37.910Z,15.80
2018-03-25T22:08:05.801Z,15.83
2018-03-25T22:10:33.290Z,16.63
2018-03-25T22:13:00.763Z,16.50
2018-03-25T22:15:28.225Z,17.90
2018-03-25T22:17:56.994Z,17.60
2018-03-25T22:20:24.507Z,15.73
2018-03-25T22:22:51.957Z,17.57
2018-03-25T22:25:19.435Z,17.93
2018-03-25T22:27:47.013Z,17.60
2018-03-25T22:30:14.899Z,17.27
2018-03-25T22:32:42.364Z,18.03
2018-03-25T22:35:09.888Z,17.80
2018-03-25T22:37:37.374Z,19.33
2018-03-25T22:40:05.326Z,17.83
2018-03-25T22:42:32.774Z,17.47
2018-03-25T22:45:00.242Z,17.50
2018-03-25T22:47:27.794Z,17.70
2018-03-25T22:49:55.275Z,16.67
2018-03-25T22:52:22.730Z,16.93
2018-03-25T22:54:52.300Z,17.63
2018-03-25T22:57:19.767Z,19.67
2018-03-25T22:59:47.226Z,17.90
2018-03-25T23:02:14.697Z,16.93
2018-03-25T23:04:42.162Z,17.37
2018-03-25T23:07:09.666Z,17.60
2018-03-25T23:09:37.522Z,19.60
2018-03-25T23:12:04.999Z,18.67
2018-03-25T23:14:32.881Z,18.03
2018-03-25T23:17:00.735Z,19.03
2018-03-25T23:19:28.295Z,18.57
2018-03-25T23:21:55.763Z,18.97
2018-03-25T23:24:23.631Z,20.20
2018-03-25T23:26:51.172Z,20.37
2018-03-25T23:29:18.656Z,19.47
2018-03-25T23:31:46.225Z,20.03
2018-03-25T23:34:13.677Z,20.67
2018-03-25T23:36:41.335Z,20.40
2018-03-25T23:39:08.817Z,21.50
2018-03-25T23:41:36.279Z,21.30
2018-03-25T23:44:04.127Z,21.63
2018-03-25T23:46:31.606Z,21.33
2018-03-25T23:48:59.078Z,21.43
2018-03-25T23:51:26.954Z,21.67
2018-03-25T23:53:54.816Z,21.17
2018-03-25T23:56:22.688Z,20.00
2018-03-25T23:58:50.149Z,21.17
